Time;durP1;ratioP1;P1;durP2;ratioP2;P2;SDS_P1;SDS_P2;PMS_P1;PMS_P2;Temp;Humidity;BMP_temperature;BMP_pressure;BME280_temperature;BME280_humidity;BME280_pressure;Samples;Min_cycle;Max_cycle;Signal;HPM_P1;HPM_P2
2023/10/18 00:02:00;;;;;;;1.90;1.40;;;;;;;3.52;100.00;100666.78;104897;1257;71420;-47
2023/10/18 00:04:28;;;;;;;1.90;1.00;;;;;;;3.50;100.00;100665.54;108750;1255;61374;-51
2023/10/18 00:06:56;;;;;;;3.30;1.00;;;;;;;3.49;100.00;100663.07;108586;1256;60163;-50
2023/10/18 00:09:38;;;;;;;2.30;1.00;;;;;;;3.46;100.00;100661.84;108738;1258;74482;-51
2023/10/18 00:12:09;;;;;;;2.50;1.10;;;;;;;3.46;100.00;100663.27;108747;1256;66041;-51
2023/10/18 00:14:39;;;;;;;1.80;0.90;;;;;;;3.46;100.00;100653.33;108745;1255;73786;-51
2023/10/18 00:17:06;;;;;;;2.00;1.10;;;;;;;3.47;100.00;100651.55;106029;1260;61843;-50
2023/10/18 00:19:33;;;;;;;2.10;1.00;;;;;;;3.49;100.00;100653.83;104805;1260;60528;-48
2023/10/18 00:22:01;;;;;;;3.20;1.00;;;;;;;3.51;100.00;100643.35;104680;1256;72964;-50
2023/10/18 00:24:29;;;;;;;2.20;1.00;;;;;;;3.54;100.00;100646.89;108698;1254;66643;-49
2023/10/18 00:26:57;;;;;;;3.00;1.40;;;;;;;3.55;100.00;100649.39;108768;1256;73618;-49
2023/10/18 00:29:24;;;;;;;1.90;1.40;;;;;;;3.56;100.00;100653.45;108789;1256;59293;-49
2023/10/18 00:31:51;;;;;;;2.80;1.00;;;;;;;3.56;100.00;100649.21;108686;1256;58808;-49
2023/10/18 00:34:19;;;;;;;2.90;1.50;;;;;;;3.55;100.00;100648.50;108752;1256;73865;-49
2023/10/18 00:36:46;;;;;;;3.40;1.20;;;;;;;3.54;100.00;100649.20;108821;1256;69283;-49
2023/10/18 00:39:27;;;;;;;2.70;1.20;;;;;;;3.52;100.00;100650.27;108657;1258;71404;-49
2023/10/18 00:41:58;;;;;;;3.90;1.40;;;;;;;3.52;100.00;100647.26;108665;1256;59912;-48
2023/10/18 00:44:27;;;;;;;2.30;1.30;;;;;;;3.51;100.00;100646.73;108784;1254;59043;-49
2023/10/18 00:46:55;;;;;;;1.90;1.10;;;;;;;3.50;100.00;100641.58;108747;1255;73793;-49
2023/10/18 00:49:24;;;;;;;2.80;1.00;;;;;;;3.49;100.00;100638.23;108614;1256;66887;-48
2023/10/18 00:51:52;;;;;;;2.20;1.20;;;;;;;3.48;100.00;100637.52;108708;1256;72723;-49
2023/10/18 00:54:19;;;;;;;1.70;1.10;;;;;;;3.48;100.00;100638.07;108734;1256;63661;-50
2023/10/18 00:56:47;;;;;;;3.70;1.40;;;;;;;3.49;100.00;100636.45;108717;1254;58850;-48
2023/10/18 00:59:26;;;;;;;2.70;1.20;;;;;;;3.51;100.00;100639.80;105601;1257;73816;-50
2023/10/18 01:01:58;;;;;;;5.60;1.30;;;;;;;3.52;100.00;100638.56;104654;1256;67023;-48
2023/10/18 01:04:30;;;;;;;4.80;1.00;;;;;;;3.50;100.00;100635.90;105893;1258;73128;-50
2023/10/18 01:06:59;;;;;;;1.90;1.20;;;;;;;3.50;100.00;100636.61;107425;1256;59270;-48
2023/10/18 01:09:27;;;;;;;4.80;1.80;;;;;;;3.48;100.00;100637.52;105561;1260;60578;-49
2023/10/18 01:11:55;;;;;;;2.50;1.20;;;;;;;3.47;100.00;100637.89;104867;1257;74037;-48
2023/10/18 01:14:25;;;;;;;2.70;1.10;;;;;;;3.45;100.00;100638.25;105109;1258;66883;-48
2023/10/18 01:16:56;;;;;;;3.40;1.60;;;;;;;3.41;100.00;100641.63;104529;1261;70890;-50
2023/10/18 01:19:23;;;;;;;3.30;1.60;;;;;;;3.37;100.00;100643.26;104882;1258;60509;-48
2023/10/18 01:21:51;;;;;;;4.20;1.50;;;;;;;3.34;100.00;100641.66;104912;1260;60478;-48
2023/10/18 01:24:19;;;;;;;1.60;1.20;;;;;;;3.29;100.00;100639.56;104775;1261;74045;-49
2023/10/18 01:26:47;;;;;;;3.40;2.00;;;;;;;3.24;100.00;100638.35;104219;1256;67597;-48
2023/10/18 01:29:15;;;;;;;2.50;1.20;;;;;;;3.20;100.00;100632.52;104885;1256;72953;-48
2023/10/18 01:31:46;;;;;;;4.00;1.40;;;;;;;3.17;100.00;100633.94;104899;1260;60907;-49
2023/10/18 01:34:15;;;;;;;3.30;1.50;;;;;;;3.15;100.00;100632.89;105262;1258;60425;-49
2023/10/18 01:36:42;;;;;;;3.60;2.20;;;;;;;3.15;100.00;100631.84;104747;1258;73941;-50
2023/10/18 01:39:20;;;;;;;3.60;1.30;;;;;;;3.15;100.00;100627.77;104668;1256;66517;-49
2023/10/18 01:41:49;;;;;;;3.50;1.40;;;;;;;3.15;100.00;100634.32;105003;1255;71368;-50
2023/10/18 01:44:33;;;;;;;3.00;1.80;;;;;;;3.16;100.00;100633.05;104507;1256;61506;-47
2023/10/18 01:47:06;;;;;;;4.00;1.60;;;;;;;3.16;100.00;100630.75;104571;1256;62168;-48
2023/10/18 01:49:44;;;;;;;3.20;1.50;;;;;;;3.17;100.00;100628.98;105293;1260;73787;-48
2023/10/18 01:52:17;;;;;;;4.00;1.80;;;;;;;3.19;100.00;100627.73;104657;1256;68092;-49
2023/10/18 01:54:46;;;;;;;5.10;2.20;;;;;;;3.21;100.00;100626.84;104429;1261;73103;-49
2023/10/18 01:57:14;;;;;;;5.30;2.30;;;;;;;3.22;100.00;100633.05;104647;1254;60461;-49
2023/10/18 01:59:42;;;;;;;7.10;2.40;;;;;;;3.24;100.00;100632.84;104718;1254;60544;-48
2023/10/18 02:02:14;;;;;;;4.70;2.10;;;;;;;3.23;100.00;100632.49;104650;1259;72903;-48
2023/10/18 02:04:44;;;;;;;4.30;3.00;;;;;;;3.23;100.00;100635.53;105248;1257;67561;-47
2023/10/18 02:07:21;;;;;;;3.10;2.30;;;;;;;3.21;100.00;100635.71;106828;1261;71614;-45
2023/10/18 02:09:49;;;;;;;3.90;1.80;;;;;;;3.19;100.00;100632.70;104713;1258;60496;-48
2023/10/18 02:12:21;;;;;;;4.20;2.10;;;;;;;3.17;100.00;100629.86;105402;1256;60527;-46
2023/10/18 02:14:49;;;;;;;9.40;2.80;;;;;;;3.15;100.00;100629.88;104729;1261;72594;-48
2023/10/18 02:17:21;;;;;;;2.60;1.50;;;;;;;3.13;100.00;100631.14;104693;1261;67708;-47
2023/10/18 02:19:49;;;;;;;3.50;1.90;;;;;;;3.11;100.00;100628.48;106064;1256;72715;-48
2023/10/18 02:22:18;;;;;;;2.80;1.40;;;;;;;3.11;100.00;100626.35;104619;1256;60519;-46
2023/10/18 02:24:49;;;;;;;5.10;2.00;;;;;;;3.12;100.00;100627.41;106557;1260;61869;-46
2023/10/18 02:27:19;;;;;;;4.90;2.10;;;;;;;3.15;100.00;100626.16;106530;1260;71921;-48
2023/10/18 02:29:47;;;;;;;5.10;1.70;;;;;;;3.16;100.00;100627.39;104551;1257;66489;-48
2023/10/18 02:32:32;;;;;;;3.50;2.00;;;;;;;3.16;100.00;100625.96;104605;1260;72772;-48
2023/10/18 02:35:03;;;;;;;7.10;2.40;;;;;;;3.16;100.00;100621.52;104598;1258;60554;-47
2023/10/18 02:37:31;;;;;;;4.60;2.30;;;;;;;3.16;100.00;100625.79;104850;1256;60598;-46
2023/10/18 02:40:08;;;;;;;2.70;1.90;;;;;;;3.15;100.00;100619.94;104738;1260;72931;-47
2023/10/18 02:42:37;;;;;;;2.80;2.20;;;;;;;3.14;100.00;100618.20;106049;1256;67015;-47
2023/10/18 02:45:12;;;;;;;3.60;2.60;;;;;;;3.13;100.00;100621.02;104754;1257;72782;-46
2023/10/18 02:47:40;;;;;;;5.50;1.80;;;;;;;3.13;100.00;100617.30;104561;1260;60538;-48
2023/10/18 02:50:08;;;;;;;4.80;1.80;;;;;;;3.11;100.00;100615.71;105746;1256;60657;-47
2023/10/18 02:52:36;;;;;;;4.30;2.40;;;;;;;3.10;100.00;100616.59;104858;1257;74290;-46
2023/10/18 02:55:08;;;;;;;3.00;1.60;;;;;;;3.09;100.00;100611.64;104654;1260;66766;-47
2023/10/18 02:57:36;;;;;;;3.80;2.20;;;;;;;3.08;100.00;100611.27;105079;1256;73316;-48
2023/10/18 03:00:10;;;;;;;2.70;1.70;;;;;;;3.06;100.00;100611.48;104603;1255;60503;-47
2023/10/18 03:02:38;;;;;;;5.90;1.90;;;;;;;3.06;100.00;100613.62;104653;1256;60380;-47
2023/10/18 03:05:06;;;;;;;3.90;1.90;;;;;;;3.05;100.00;100608.12;105141;1258;72699;-48
2023/10/18 03:07:35;;;;;;;4.40;1.40;;;;;;;3.05;100.00;100607.59;104902;1258;66559;-47
2023/10/18 03:10:11;;;;;;;3.10;1.70;;;;;;;3.06;100.00;100605.27;104673;1258;72765;-46
2023/10/18 03:12:44;;;;;;;2.70;1.40;;;;;;;3.07;100.00;100603.14;104653;1256;62592;-47
2023/10/18 03:15:17;;;;;;;4.60;1.60;;;;;;;3.08;100.00;100599.23;104409;1256;60605;-48
2023/10/18 03:17:48;;;;;;;5.10;1.80;;;;;;;3.10;100.00;100596.38;104631;1260;74530;-48
2023/10/18 03:20:26;;;;;;;4.30;1.70;;;;;;;3.11;100.00;100594.42;108690;1256;67525;-48
2023/10/18 03:22:55;;;;;;;2.80;1.60;;;;;;;3.13;100.00;100591.23;108767;1255;71041;-47
2023/10/18 03:25:31;;;;;;;3.90;1.40;;;;;;;3.13;100.00;100591.41;108784;1256;58519;-48
2023/10/18 03:28:00;;;;;;;4.10;2.20;;;;;;;3.14;100.00;100591.60;108818;1256;59355;-49
2023/10/18 03:31:35;;;;;;;4.80;2.40;;;;;;;3.14;100.00;100588.21;108752;1256;72647;-48
2023/10/18 03:33:28;;;;;;;5.30;1.80;;;;;;;3.14;100.00;100585.73;108721;1255;68457;-47
2023/10/18 03:36:06;;;;;;;4.80;2.10;;;;;;;3.13;100.00;100588.23;108773;1257;72372;-49
2023/10/18 03:38:54;;;;;;;6.60;2.20;;;;;;;3.12;100.00;100589.64;108791;1254;60962;-47
2023/10/18 03:41:25;;;;;;;;;;;;;;;3.10;100.00;100590.89;108793;1254;58891;-48
2023/10/18 03:44:03;;;;;;;3.50;1.70;;;;;;;3.08;100.00;100594.79;108622;1256;74229;-48
2023/10/18 03:46:38;;;;;;;2.20;1.30;;;;;;;3.05;100.00;100594.46;108716;1256;66783;-47
2023/10/18 03:49:16;;;;;;;2.50;1.80;;;;;;;3.02;100.00;100596.95;108714;1255;71488;-48
2023/10/18 03:51:46;;;;;;;1.80;1.40;;;;;;;3.00;100.00;100590.20;108650;1255;61118;-48
2023/10/18 03:54:14;;;;;;;3.40;1.30;;;;;;;2.97;100.00;100589.35;108696;1254;60020;-48
2023/10/18 03:56:45;;;;;;;2.40;1.50;;;;;;;2.96;100.00;100585.29;108716;1258;73919;-48
2023/10/18 03:59:21;;;;;;;2.70;1.40;;;;;;;2.96;100.00;100584.76;108915;1256;68079;-49
2023/10/18 04:04:36;;;;;;;3.70;1.90;;;;;;;2.98;100.00;100583.66;106137;1258;60525;-48
2023/10/18 04:07:16;;;;;;;4.80;2.30;;;;;;;2.98;100.00;100584.38;105551;1254;60540;-50
2023/10/18 04:12:27;;;;;;;6.20;2.30;;;;;;;2.96;100.00;100579.97;104321;1256;66442;-47
2023/10/18 04:15:01;;;;;;;2.60;1.90;;;;;;;2.93;100.00;100579.43;105373;1258;71454;-46
2023/10/18 04:17:37;;;;;;;3.20;2.10;;;;;;;2.91;100.00;100579.97;105148;1256;60513;-47
2023/10/18 04:22:52;;;;;;;2.20;1.70;;;;;;;2.86;100.00;100582.66;106752;1256;74242;-47
2023/10/18 04:25:36;;;;;;;6.80;2.00;;;;;;;2.82;100.00;100584.27;107442;1256;66440;-47
2023/10/18 04:28:04;;;;;;;5.40;3.00;;;;;;;2.79;100.00;100584.81;104472;1257;72729;-47
2023/10/18 04:30:32;;;;;;;4.60;2.80;;;;;;;2.78;100.00;100584.82;104446;1256;60672;-47
2023/10/18 04:33:00;;;;;;;5.30;3.00;;;;;;;2.78;100.00;100583.93;104908;1258;60489;-47
2023/10/18 04:35:29;;;;;;;3.80;3.20;;;;;;;2.77;100.00;100583.75;104535;1254;72580;-48
2023/10/18 04:37:56;;;;;;;4.10;3.60;;;;;;;2.77;100.00;100581.98;104462;1260;66503;-48
2023/10/18 04:40:26;;;;;;;6.20;4.00;;;;;;;2.76;100.00;100582.16;104541;1256;71407;-47
2023/10/18 04:42:54;;;;;;;7.50;4.00;;;;;;;2.77;100.00;100582.34;104820;1256;60562;-49
2023/10/18 04:45:26;;;;;;;4.00;3.60;;;;;;;2.79;100.00;100581.09;105974;1256;60365;-48
2023/10/18 04:48:06;;;;;;;6.40;3.90;;;;;;;2.83;100.00;100582.48;104562;1260;72652;-46
2023/10/18 04:50:34;;;;;;;5.80;2.70;;;;;;;2.85;100.00;100579.83;106706;1256;66787;-49
2023/10/18 04:53:09;;;;;;;5.30;2.90;;;;;;;2.88;100.00;100577.34;104997;1256;72673;-48
2023/10/18 04:55:46;;;;;;;4.00;3.10;;;;;;;2.91;100.00;100576.95;104842;1253;60437;-45
2023/10/18 04:58:15;;;;;;;4.30;2.30;;;;;;;2.95;100.00;100579.25;105064;1258;60445;-49
2023/10/18 05:00:57;;;;;;;5.70;2.70;;;;;;;2.98;100.00;100579.76;108774;1254;73954;-49
2023/10/18 05:03:30;;;;;;;4.10;2.30;;;;;;;3.03;100.00;100580.10;107209;1260;66861;-49
2023/10/18 05:05:58;;;;;;;7.00;4.80;;;;;;;3.07;100.00;100581.68;104942;1256;71460;-48
2023/10/18 05:08:30;;;;;;;18.00;9.30;;;;;;;3.10;100.00;100578.30;104794;1255;60432;-47
2023/10/18 05:11:22;;;;;;;28.80;16.80;;;;;;;3.15;100.00;100580.94;104854;1258;60382;-47
2023/10/18 05:13:48;;;;;;;31.30;17.70;;;;;;;3.20;100.00;100583.21;104798;1260;73928;-46
2023/10/18 05:16:16;;;;;;;29.90;18.90;;;;;;;3.25;100.00;100585.48;108828;1254;66463;-48
2023/10/18 05:18:44;;;;;;;28.20;18.00;;;;;;;3.32;100.00;100588.47;108854;1254;73153;-48
2023/10/18 05:21:20;;;;;;;21.90;14.90;;;;;;;3.38;100.00;100589.14;105111;1258;60924;-49
2023/10/18 05:23:50;;;;;;;19.40;12.60;;;;;;;3.44;100.00;100587.33;104801;1254;60355;-48
2023/10/18 05:26:17;;;;;;;18.90;12.00;;;;;;;3.50;100.00;100591.54;104952;1260;73897;-49
2023/10/18 05:29:03;;;;;;;11.60;8.60;;;;;;;3.56;100.00;100596.66;104586;1254;68567;-49
2023/10/18 05:32:06;;;;;;;6.70;5.60;;;;;;;3.62;100.00;100596.27;104810;1257;71488;-49
2023/10/18 05:34:55;;;;;;;6.40;4.60;;;;;;;3.70;100.00;100598.52;104740;1254;60356;-47
2023/10/18 05:37:41;;;;;;;3.60;3.10;;;;;;;3.76;100.00;100600.59;105061;1256;60592;-48
2023/10/18 05:42:55;;;;;;;5.10;4.20;;;;;;;3.85;100.00;100600.70;104376;1258;66784;-48
2023/10/18 05:45:22;;;;;;;6.00;2.90;;;;;;;3.88;100.00;100600.88;104636;1254;72445;-47
2023/10/18 05:47:54;;;;;;;5.00;2.90;;;;;;;3.89;100.00;100601.58;108847;1254;58193;-49
2023/10/18 05:50:24;;;;;;;4.60;2.40;;;;;;;3.90;100.00;100601.75;104651;1254;60432;-48
2023/10/18 05:52:57;;;;;;;5.20;3.30;;;;;;;3.91;100.00;100596.95;105555;1260;73900;-47
2023/10/18 05:55:30;;;;;;;8.10;3.60;;;;;;;3.94;100.00;100597.97;104829;1260;66458;-47
2023/10/18 05:58:04;;;;;;;4.10;3.10;;;;;;;3.97;100.00;100598.14;105933;1257;73139;-47
2023/10/18 06:00:33;;;;;;;7.10;3.60;;;;;;;4.00;100.00;100595.79;104691;1260;61688;-49
2023/10/18 06:03:00;;;;;;;4.30;3.00;;;;;;;4.05;100.00;100594.34;105484;1256;60458;-47
2023/10/18 06:05:33;;;;;;;9.00;2.90;;;;;;;4.07;100.00;100596.27;104631;1258;73889;-47
2023/10/18 06:08:01;;;;;;;8.50;3.00;;;;;;;4.11;100.00;100594.10;104547;1256;68499;-47
2023/10/18 06:10:28;;;;;;;8.30;3.20;;;;;;;4.15;100.00;100599.40;104978;1255;72785;-49
2023/10/18 06:12:58;;;;;;;3.20;2.20;;;;;;;4.20;100.00;100594.91;104793;1256;60990;-48
2023/10/18 06:15:38;;;;;;;3.80;3.00;;;;;;;4.25;100.00;100593.09;108821;1255;59032;-48
2023/10/18 06:18:06;;;;;;;6.90;3.80;;;;;;;4.31;100.00;100595.89;108710;1255;73789;-48
2023/10/18 06:20:36;;;;;;;6.80;4.10;;;;;;;4.37;100.00;100591.73;106411;1256;67927;-46
2023/10/18 06:23:08;;;;;;;5.80;3.50;;;;;;;4.44;100.00;100591.66;104947;1261;72753;-48
2023/10/18 06:25:49;;;;;;;8.10;3.20;;;;;;;4.49;100.00;100597.48;108807;1256;58682;-50
2023/10/18 06:28:24;;;;;;;5.00;4.10;;;;;;;4.54;100.00;100601.14;108897;1256;58850;-49
2023/10/18 06:30:53;;;;;;;7.60;4.10;;;;;;;4.58;100.00;100601.30;108942;1258;72645;-49
2023/10/18 06:33:21;;;;;;;5.10;3.70;;;;;;;4.62;100.00;100595.02;108689;1256;66468;-49
2023/10/18 06:35:52;;;;;;;5.50;3.30;;;;;;;4.66;100.00;100594.63;108788;1254;72799;-48
2023/10/18 06:38:22;;;;;;;4.90;3.10;;;;;;;4.72;100.00;100595.44;108987;1255;59706;-46
2023/10/18 06:40:53;;;;;;;4.20;2.50;;;;;;;4.79;100.00;100594.66;108868;1256;60278;-49
2023/10/18 06:43:33;;;;;;;4.10;3.30;;;;;;;4.88;100.00;100599.70;108714;1256;74343;-48
2023/10/18 06:46:00;;;;;;;4.70;2.40;;;;;;;4.97;100.00;100597.47;108771;1256;66379;-49
2023/10/18 06:48:30;;;;;;;3.70;2.70;;;;;;;5.06;100.00;100592.55;108774;1256;72752;-49
2023/10/18 06:50:59;;;;;;;6.00;2.60;;;;;;;5.15;100.00;100589.06;108757;1254;60929;-48
2023/10/18 06:53:27;;;;;;;4.60;1.90;;;;;;;5.23;100.00;100585.55;108749;1255;60526;-48
2023/10/18 06:56:06;;;;;;;6.60;2.00;;;;;;;5.34;100.00;100582.92;108816;1259;72579;-49
2023/10/18 07:01:04;;;;;;;5.10;2.10;;;;;;;5.58;100.00;100582.40;108846;1256;72762;-47
2023/10/18 07:03:33;;;;;;;4.10;2.00;;;;;;;5.71;100.00;100578.83;108753;1256;60113;-48
2023/10/18 07:06:04;;;;;;;4.20;2.20;;;;;;;5.84;100.00;100575.06;108812;1257;183404;-49
2023/10/18 07:09:53;;;;;;;6.60;2.90;;;;;;;6.05;100.00;100593.98;102120;1292;604428;-49
2023/10/18 07:12:26;;;;;;;4.10;2.10;;;;;;;6.17;100.00;100585.41;108107;1266;58062;-48
2023/10/18 07:14:57;;;;;;;2.70;1.70;;;;;;;6.30;100.00;100582.86;105507;1268;59973;-49
2023/10/18 07:17:24;;;;;;;3.30;2.00;;;;;;;6.43;100.00;100579.77;103977;1271;72343;-49
2023/10/18 07:19:58;;;;;;;3.50;1.90;;;;;;;6.56;100.00;100572.94;103960;1267;66830;-49
2023/10/18 07:22:41;;;;;;;4.10;2.50;;;;;;;6.66;100.00;100566.48;103890;1270;181975;-48
2023/10/18 07:25:08;;;;;;;3.90;2.20;;;;;;;6.78;100.00;100564.83;104069;1265;61995;-49
2023/10/18 07:27:37;;;;;;;2.60;1.90;;;;;;;6.89;100.00;100558.36;106117;1265;59011;-49
2023/10/18 07:30:14;;;;;;;3.90;2.10;;;;;;;7.02;100.00;100557.04;108204;1263;71527;-49
2023/10/18 07:32:47;;;;;;;2.90;2.20;;;;;;;7.15;100.00;100553.52;108282;1264;67726;-49
2023/10/18 07:35:30;;;;;;;3.20;2.00;;;;;;;7.29;100.00;100552.14;108419;1263;72704;-49
2023/10/18 07:37:57;;;;;;;3.40;1.60;;;;;;;7.43;100.00;100549.15;104396;1268;60590;-48
2023/10/18 07:40:33;;;;;;;4.90;1.90;;;;;;;7.55;100.00;100541.73;104464;1266;59746;-50
2023/10/18 07:43:04;;;;;;;2.50;1.60;;;;;;;7.64;100.00;100540.80;104680;1266;73573;-52
2023/10/18 07:45:32;;;;;;;2.30;1.30;;;;;;;7.73;100.00;100539.16;105016;1264;65683;-50
2023/10/18 07:47:59;;;;;;;2.80;1.70;;;;;;;7.82;100.00;100534.64;104445;1263;73006;-49
2023/10/18 07:53:07;;;;;;;4.40;2.40;;;;;;;7.99;100.00;100534.57;104037;1270;59669;-51
2023/10/18 07:55:37;;;;;;;4.20;1.50;;;;;;;8.09;100.00;100531.09;107102;1269;71902;-49
2023/10/18 08:03:45;;;;;;;2.90;1.70;;;;;;;8.42;100.00;100520.43;106027;1266;59632;-48
2023/10/18 08:06:15;;;;;;;3.80;1.30;;;;;;;8.52;100.00;100521.92;104579;1270;60301;-49
2023/10/18 08:08:43;;;;;;;2.40;1.00;;;;;;;8.61;100.00;100515.41;105225;1264;71890;-48
2023/10/18 08:11:12;;;;;;;1.60;1.20;;;;;;;8.67;100.00;100511.48;104108;1264;65627;-47
2023/10/18 08:13:45;;;;;;;1.70;1.00;;;;;;;8.71;100.00;100509.04;104133;1267;71526;-48
2023/10/18 08:16:27;;;;;;;1.70;1.10;;;;;;;8.76;100.00;100507.66;104610;1266;60182;-48
2023/10/18 08:18:57;;;;;;;2.20;1.60;;;;;;;8.83;100.00;100509.93;107357;1266;60108;-47
2023/10/18 08:21:37;;;;;;;4.00;1.30;;;;;;;8.91;100.00;100505.41;107662;1264;72251;-49
2023/10/18 08:24:08;;;;;;;4.10;1.40;;;;;;;9.00;100.00;100509.42;105821;1267;66666;-47
2023/10/18 08:26:48;;;;;;;3.70;1.10;;;;;;;9.09;100.00;100503.27;105028;1264;72589;-48
2023/10/18 08:29:16;;;;;;;5.90;1.50;;;;;;;9.16;100.00;100502.34;108165;1264;58822;-49
2023/10/18 08:31:55;;;;;;;2.70;1.20;;;;;;;9.24;100.00;100498.69;106963;1270;60202;-48
2023/10/18 08:34:23;;;;;;;4.20;2.30;;;;;;;9.34;100.00;100493.71;104917;1265;71232;-47
2023/10/18 08:37:01;;;;;;;1.50;1.00;;;;;;;9.39;100.00;100490.86;104505;1270;66197;-46
2023/10/18 08:39:28;;;;;;;1.80;1.00;;;;;;;9.43;100.00;100490.21;104560;1266;72222;-48
2023/10/18 08:42:13;;;;;;;1.20;0.80;;;;;;;9.50;100.00;100492.86;104511;1267;60386;-48
2023/10/18 08:44:41;;;;;;;3.10;0.80;;;;;;;9.59;100.00;100490.92;106231;1268;59608;-47
2023/10/18 08:49:50;;;;;;;1.50;0.70;;;;;;;9.75;100.00;100489.16;106849;1266;68830;-49
2023/10/18 08:52:20;;;;;;;2.40;0.70;;;;;;;9.81;100.00;100490.35;105656;1270;72769;-49
2023/10/18 08:54:51;;;;;;;2.00;0.70;;;;;;;9.88;100.00;100488.70;105362;1266;59650;-49
2023/10/18 08:57:42;;;;;;;1.40;0.60;;;;;;;9.91;100.00;100485.22;103586;1270;59603;-49
2023/10/18 09:02:53;;;;;;;2.10;0.90;;;;;;;10.00;100.00;100480.23;104528;1269;68110;-48
2023/10/18 09:05:25;;;;;;;1.10;0.70;;;;;;;10.05;100.00;100479.50;105117;1266;71536;-48
2023/10/18 09:07:55;;;;;;;1.30;0.70;;;;;;;10.12;100.00;100475.49;108063;1265;58899;-49
2023/10/18 09:15:54;;;;;;;1.30;0.70;;;;;;;10.17;100.00;100454.73;104534;1270;68320;-47
2023/10/18 09:18:30;;;;;;;1.60;0.70;;;;;;;10.19;100.00;100452.36;104362;1271;72771;-50
2023/10/18 09:21:07;;;;;;;2.90;0.70;;;;;;;10.25;100.00;100444.96;108587;1259;58904;-49
2023/10/18 09:23:35;;;;;;;2.10;0.50;;;;;;;10.31;100.00;100442.02;108655;1259;60037;-49
2023/10/18 09:26:18;;;;;;;3.00;0.60;;;;;;;10.35;100.00;100433.27;108707;1257;73097;-48
2023/10/18 09:28:46;;;;;;;1.90;0.70;;;;;;;10.43;100.00;100430.30;108675;1257;67773;-49
2023/10/18 09:31:21;;;;;;;1.10;0.60;;;;;;;10.49;100.00;100425.39;108687;1257;72688;-49
2023/10/18 09:33:56;;;;;;;0.70;0.40;;;;;;;10.57;100.00;100422.38;108637;1257;58843;-50
2023/10/18 09:36:24;;;;;;;0.90;0.40;;;;;;;10.66;100.00;100420.64;108511;1257;60266;-50
2023/10/18 09:38:52;;;;;;;2.30;0.50;;;;;;;10.75;100.00;100414.89;108650;1257;73178;-50
2023/10/18 09:41:20;;;;;;;2.20;0.50;;;;;;;10.85;100.00;100417.04;108589;1259;66607;-48
2023/10/18 09:43:47;;;;;;;1.40;0.50;;;;;;;10.89;100.00;100413.99;108726;1257;72805;-49
2023/10/18 09:46:15;;;;;;;1.00;0.60;;;;;;;10.86;100.00;100418.78;108505;1259;58534;-50
2023/10/18 09:48:44;;;;;;;0.70;0.50;;;;;;;10.82;100.00;100412.85;108587;1257;58888;-49
2023/10/18 09:51:15;;;;;;;0.60;0.50;;;;;;;10.75;100.00;100410.93;108664;1257;73172;-49
2023/10/18 09:53:52;;;;;;;0.90;0.50;;;;;;;10.72;100.00;100407.69;108711;1261;66351;-48
2023/10/18 09:56:25;;;;;;;1.80;0.40;;;;;;;10.69;100.00;100399.16;108630;1257;71251;-48
2023/10/18 09:59:04;;;;;;;1.30;0.60;;;;;;;10.65;100.00;100393.38;108715;1257;60138;-49
2023/10/18 10:04:17;;;;;;;1.60;0.50;;;;;;;10.55;100.00;100402.21;108673;1257;72352;-49
2023/10/18 10:06:48;;;;;;;0.90;0.40;;;;;;;10.50;100.00;100401.85;108585;1257;67932;-50
2023/10/18 10:09:15;;;;;;;1.50;0.50;;;;;;;10.45;100.00;100393.83;106828;1259;71376;-49
2023/10/18 10:11:44;;;;;;;2.40;0.50;;;;;;;10.39;100.00;100383.45;104990;1259;59628;-47
2023/10/18 10:14:21;;;;;;;0.90;0.50;;;;;;;10.36;100.00;100379.80;106081;1256;59889;-46
2023/10/18 10:16:57;;;;;;;2.80;0.70;;;;;;;10.32;100.00;100376.15;108521;1259;73451;-48
2023/10/18 10:19:29;;;;;;;2.30;0.80;;;;;;;10.31;100.00;100369.38;107573;1257;66836;-48
2023/10/18 10:22:04;;;;;;;1.40;0.60;;;;;;;10.32;100.00;100365.04;105180;1261;71783;-48
2023/10/18 10:24:42;;;;;;;2.10;0.70;;;;;;;10.37;100.00;100365.60;104951;1257;59671;-49
2023/10/18 10:27:27;;;;;;;0.80;0.60;;;;;;;10.40;100.00;100358.83;108486;1263;58655;-49
2023/10/18 10:29:58;;;;;;;6.20;0.70;;;;;;;10.39;100.00;100357.23;106739;1262;72370;-48
2023/10/18 10:32:29;;;;;;;2.40;0.60;;;;;;;10.39;100.00;100354.02;105424;1258;68110;-49
2023/10/18 10:35:17;;;;;;;1.00;0.60;;;;;;;10.37;100.00;100354.13;105055;1256;72745;-48
2023/10/18 10:37:49;;;;;;;1.30;0.60;;;;;;;10.37;100.00;100355.19;108608;1256;58871;-50
2023/10/18 10:40:36;;;;;;;1.70;0.80;;;;;;;10.36;100.00;100354.66;108589;1256;57826;-50
2023/10/18 10:43:10;;;;;;;1.40;0.70;;;;;;;10.37;100.00;100346.59;104760;1256;74871;-48
2023/10/18 10:48:18;;;;;;;0.90;0.60;;;;;;;10.34;100.00;100347.39;108641;1256;71571;-50
2023/10/18 10:50:50;;;;;;;1.00;0.70;;;;;;;10.33;100.00;100342.76;108671;1256;58846;-49
2023/10/18 10:53:31;;;;;;;1.70;0.50;;;;;;;10.32;100.00;100339.94;105173;1256;60020;-50
2023/10/18 10:56:17;;;;;;;2.20;0.70;;;;;;;10.29;100.00;100337.88;104413;1257;73097;-48
2023/10/18 10:58:55;;;;;;;1.80;0.70;;;;;;;10.27;100.00;100342.66;104637;1256;66784;-49
2023/10/18 11:04:27;;;;;;;1.40;0.70;;;;;;;10.18;100.00;100338.31;104761;1256;59699;-49
2023/10/18 11:06:57;;;;;;;1.80;0.70;;;;;;;10.15;100.00;100336.23;105062;1262;59715;-48
2023/10/18 11:09:32;;;;;;;1.30;0.70;;;;;;;10.12;100.00;100331.12;108568;1256;70871;-47
2023/10/18 11:12:04;;;;;;;1.30;0.80;;;;;;;10.11;100.00;100329.91;107940;1256;67746;-49
2023/10/18 11:14:31;;;;;;;1.70;0.70;;;;;;;10.10;100.00;100334.09;105642;1262;72787;-49
2023/10/18 11:17:09;;;;;;;1.00;0.70;;;;;;;10.08;100.00;100332.91;104338;1260;61082;-50
2023/10/18 11:19:41;;;;;;;1.10;0.70;;;;;;;10.05;100.00;100326.55;106928;1259;59776;-48
2023/10/18 11:22:11;;;;;;;3.00;0.90;;;;;;;10.04;100.00;100323.91;104910;1262;72605;-48
2023/10/18 11:24:39;;;;;;;1.90;0.70;;;;;;;10.03;100.00;100324.67;105077;1264;66832;-47
2023/10/18 11:27:08;;;;;;;1.80;1.00;;;;;;;10.02;100.00;100322.20;105908;1261;71463;-48
2023/10/18 11:29:41;;;;;;;3.20;0.80;;;;;;;10.00;100.00;100320.11;105086;1262;60459;-48
2023/10/18 11:32:15;;;;;;;1.70;0.70;;;;;;;10.01;100.00;100311.84;106365;1264;59623;-47
2023/10/18 11:34:46;;;;;;;1.00;0.60;;;;;;;10.01;100.00;100309.69;108324;1256;72648;-49
2023/10/18 11:37:47;;;;;;;3.70;0.90;;;;;;;10.00;100.00;100308.84;108617;1256;66871;-50
2023/10/18 11:40:18;;;;;;;2.30;0.80;;;;;;;10.00;100.00;100307.93;108453;1256;73115;-49
2023/10/18 11:42:55;;;;;;;3.40;1.10;;;;;;;10.00;100.00;100303.09;105740;1256;63338;-49
2023/10/18 11:45:27;;;;;;;4.70;1.10;;;;;;;10.00;100.00;100304.16;105176;1256;60439;-49
2023/10/18 11:47:55;;;;;;;2.00;0.80;;;;;;;10.00;100.00;100302.73;105600;1263;72665;-47
2023/10/18 11:50:26;;;;;;;2.70;0.70;;;;;;;10.00;100.00;100295.03;105085;1263;66968;-48
2023/10/18 11:52:53;;;;;;;3.60;0.70;;;;;;;9.99;100.00;100295.58;104877;1260;72079;-50
2023/10/18 11:55:20;;;;;;;2.70;0.80;;;;;;;9.99;100.00;100286.63;107276;1257;60544;-50
2023/10/18 11:57:50;;;;;;;1.20;0.80;;;;;;;9.99;100.00;100287.15;104972;1264;60382;-49
2023/10/18 12:02:53;;;;;;;1.30;0.60;;;;;;;9.98;100.00;100278.06;105020;1263;68860;-49
2023/10/18 12:05:23;;;;;;;2.00;0.70;;;;;;;9.97;100.00;100277.91;108708;1256;72709;-48
2023/10/18 12:07:53;;;;;;;0.80;0.50;;;;;;;9.96;100.00;100274.20;105427;1260;60520;-48
2023/10/18 12:10:34;;;;;;;3.60;0.70;;;;;;;9.95;100.00;100268.16;106193;1256;60636;-49
2023/10/18 12:13:06;;;;;;;2.50;0.70;;;;;;;9.95;100.00;100257.20;106068;1257;72712;-49
2023/10/18 12:15:35;;;;;;;0.80;0.60;;;;;;;9.97;100.00;100256.02;107787;1260;66837;-46
2023/10/18 12:20:08;;;;;;;3.00;0.80;;;;;;;10.04;100.00;100284.65;101646;1290;600372;-48
2023/10/18 12:22:36;;;;;;;2.00;0.60;;;;;;;10.06;100.00;100277.90;104115;1266;59287;-48
2023/10/18 12:25:04;;;;;;;2.10;0.70;;;;;;;10.10;100.00;100274.38;104817;1269;61665;-48